Time;durP1;ratioP1;P1;durP2;ratioP2;P2;SDS_P1;SDS_P2;PMS_P1;PMS_P2;Temp;Humidity;BMP_temperature;BMP_pressure;BME280_temperature;BME280_humidity;BME280_pressure;Samples;Min_cycle;Max_cycle;Signal;HPM_P1;HPM_P2
2024/01/25 00:00:05;;;;;;;30.75;4.90;;;;;;;;;;5101645;27;20060;-61
2024/01/25 00:02:31;;;;;;;31.60;6.22;;;;;;;;;;5103251;27;20052;-62
2024/01/25 00:04:57;;;;;;;24.60;4.70;;;;;;;;;;5103320;27;20462;-61
2024/01/25 00:07:24;;;;;;;28.08;4.65;;;;;;;;;;5102895;27;20052;-61
2024/01/25 00:09:50;;;;;;;19.83;4.57;;;;;;;;;;5102314;27;20514;-61
2024/01/25 00:12:17;;;;;;;23.33;5.05;;;;;;;;;;5103651;27;20165;-61
2024/01/25 00:14:43;;;;;;;28.42;5.65;;;;;;;;;;5103359;27;20127;-61
2024/01/25 00:17:10;;;;;;;27.20;5.25;;;;;;;;;;5103444;27;20500;-61
2024/01/25 00:19:36;;;;;;;32.20;4.72;;;;;;;;;;5103122;27;20132;-60
2024/01/25 00:22:03;;;;;;;33.30;5.13;;;;;;;;;;5102796;27;20422;-61
2024/01/25 00:24:30;;;;;;;25.92;5.13;;;;;;;;;;5102703;27;20466;-61
2024/01/25 00:26:56;;;;;;;24.98;5.72;;;;;;;;;;5102569;27;20517;-61
2024/01/25 00:29:22;;;;;;;29.60;6.60;;;;;;;;;;5103193;27;20133;-59
2024/01/25 00:31:49;;;;;;;27.67;5.50;;;;;;;;;;5103233;27;20048;-61
2024/01/25 00:34:15;;;;;;;23.70;6.95;;;;;;;;;;5102781;27;20058;-59
2024/01/25 00:36:42;;;;;;;25.48;4.93;;;;;;;;;;5102244;27;20056;-62
2024/01/25 00:39:09;;;;;;;30.35;5.45;;;;;;;;;;5103096;27;20084;-61
2024/01/25 00:41:35;;;;;;;28.90;5.97;;;;;;;;;;5102907;27;20052;-61
2024/01/25 00:44:02;;;;;;;30.92;6.95;;;;;;;;;;5102396;27;20513;-61
2024/01/25 00:46:29;;;;;;;22.70;4.68;;;;;;;;;;5103001;27;20164;-60
2024/01/25 00:48:55;;;;;;;27.60;6.43;;;;;;;;;;5102548;27;20143;-61
2024/01/25 00:51:25;;;;;;;39.67;7.60;;;;;;;;;;5101584;28;20056;-60
2024/01/25 00:53:52;;;;;;;24.05;6.97;;;;;;;;;;5102404;28;20079;-61
2024/01/25 00:56:18;;;;;;;23.40;5.90;;;;;;;;;;5102083;27;20045;-61
2024/01/25 00:58:45;;;;;;;32.38;6.57;;;;;;;;;;5102115;27;20062;-58
2024/01/25 01:01:12;;;;;;;30.35;8.20;;;;;;;;;;5103393;27;20593;-60
2024/01/25 01:03:38;;;;;;;25.70;5.35;;;;;;;;;;5103645;27;20121;-62
2024/01/25 01:06:05;;;;;;;20.23;4.57;;;;;;;;;;5105789;27;20047;-61
2024/01/25 01:08:32;;;;;;;33.17;5.05;;;;;;;;;;5105949;27;20052;-60
2024/01/25 01:10:58;;;;;;;27.52;6.07;;;;;;;;;;5105787;27;20106;-61
2024/01/25 01:13:25;;;;;;;20.52;4.28;;;;;;;;;;5106552;27;20063;-61
2024/01/25 01:15:51;;;;;;;37.08;7.63;;;;;;;;;;5106054;27;20052;-60
2024/01/25 01:18:18;;;;;;;28.20;7.07;;;;;;;;;;5106565;27;20097;-61
2024/01/25 01:20:44;;;;;;;33.10;6.80;;;;;;;;;;5105099;27;20052;-61
2024/01/25 01:23:11;;;;;;;43.78;13.65;;;;;;;;;;5105797;27;20098;-61
2024/01/25 01:25:37;;;;;;;33.83;7.95;;;;;;;;;;5106370;27;20060;-61
2024/01/25 01:28:04;;;;;;;32.13;7.88;;;;;;;;;;5105922;27;20548;-61
2024/01/25 01:30:30;;;;;;;25.63;7.88;;;;;;;;;;5105638;27;20052;-61
2024/01/25 01:32:57;;;;;;;31.63;8.07;;;;;;;;;;5106028;27;20048;-62
2024/01/25 01:35:24;;;;;;;27.33;6.97;;;;;;;;;;5105987;27;20060;-61
2024/01/25 01:37:51;;;;;;;44.83;24.35;;;;;;;;;;5105737;27;20083;-62
2024/01/25 01:40:17;;;;;;;33.65;9.43;;;;;;;;;;5105476;28;20080;-59
2024/01/25 01:42:44;;;;;;;32.80;5.28;;;;;;;;;;5105360;27;20048;-61
2024/01/25 01:45:11;;;;;;;24.33;6.18;;;;;;;;;;5105833;27;20143;-61
2024/01/25 01:47:38;;;;;;;24.77;4.38;;;;;;;;;;5105233;27;20157;-62
2024/01/25 01:50:05;;;;;;;27.63;5.15;;;;;;;;;;5104543;27;20155;-62
2024/01/25 01:52:32;;;;;;;32.95;5.07;;;;;;;;;;5105177;27;20051;-61
2024/01/25 01:54:58;;;;;;;32.40;4.85;;;;;;;;;;5105070;27;20063;-60
2024/01/25 01:57:26;;;;;;;28.70;4.93;;;;;;;;;;5104947;27;20183;-62
2024/01/25 01:59:53;;;;;;;33.42;12.25;;;;;;;;;;5104677;27;20052;-61
2024/01/25 02:02:19;;;;;;;31.17;9.43;;;;;;;;;;5105305;27;20055;-61
2024/01/25 02:04:46;;;;;;;33.28;13.02;;;;;;;;;;5104563;27;20249;-61
2024/01/25 02:07:14;;;;;;;31.83;10.13;;;;;;;;;;5105494;27;20052;-60
2024/01/25 02:09:40;;;;;;;29.52;5.97;;;;;;;;;;5104980;28;20559;-61
2024/01/25 02:12:07;;;;;;;23.80;6.80;;;;;;;;;;5105133;27;20508;-61
2024/01/25 02:14:34;;;;;;;32.05;11.20;;;;;;;;;;5104919;27;20056;-61
2024/01/25 02:17:00;;;;;;;23.30;7.63;;;;;;;;;;5104418;28;20056;-61
2024/01/25 02:19:27;;;;;;;28.27;6.13;;;;;;;;;;5104516;27;20137;-60
2024/01/25 02:21:53;;;;;;;24.98;6.13;;;;;;;;;;5103869;27;20465;-60
2024/01/25 02:24:20;;;;;;;27.10;4.65;;;;;;;;;;5104713;27;20056;-61
2024/01/25 02:26:46;;;;;;;26.38;4.97;;;;;;;;;;5104641;27;20098;-61
2024/01/25 02:29:13;;;;;;;30.65;7.80;;;;;;;;;;5104963;27;20575;-61
2024/01/25 02:31:39;;;;;;;23.55;6.10;;;;;;;;;;5104331;28;20587;-61
2024/01/25 02:34:06;;;;;;;30.48;7.28;;;;;;;;;;5104181;27;20062;-60
2024/01/25 02:36:32;;;;;;;32.15;7.40;;;;;;;;;;5104631;27;20605;-61
2024/01/25 02:38:59;;;;;;;29.13;4.97;;;;;;;;;;5104496;27;20557;-61
2024/01/25 02:41:25;;;;;;;32.90;5.13;;;;;;;;;;5104359;27;20067;-61
2024/01/25 02:43:51;;;;;;;35.40;6.97;;;;;;;;;;5104674;27;20082;-61
2024/01/25 02:46:18;;;;;;;36.53;6.05;;;;;;;;;;5104720;27;20048;-60
2024/01/25 02:48:44;;;;;;;30.17;6.93;;;;;;;;;;5104528;27;20048;-61
2024/01/25 02:51:11;;;;;;;35.85;6.75;;;;;;;;;;5104813;28;20052;-61
2024/01/25 02:53:38;;;;;;;32.50;6.68;;;;;;;;;;5104377;28;20056;-61
2024/01/25 02:56:05;;;;;;;29.52;6.20;;;;;;;;;;5104570;27;20048;-60
2024/01/25 02:58:31;;;;;;;35.22;7.68;;;;;;;;;;5103756;27;20088;-61
2024/01/25 03:00:58;;;;;;;31.75;6.00;;;;;;;;;;5102498;27;20059;-60
2024/01/25 03:03:24;;;;;;;32.10;6.93;;;;;;;;;;5104531;27;20143;-61
2024/01/25 03:05:51;;;;;;;39.03;10.57;;;;;;;;;;5104283;27;20113;-61
2024/01/25 03:08:18;;;;;;;30.92;7.10;;;;;;;;;;5104303;28;20083;-61
2024/01/25 03:10:46;;;;;;;41.42;8.75;;;;;;;;;;5103718;27;20558;-60
2024/01/25 03:13:12;;;;;;;26.67;8.45;;;;;;;;;;5104257;27;20106;-62
2024/01/25 03:15:39;;;;;;;29.70;7.28;;;;;;;;;;5103941;27;20059;-60
2024/01/25 03:18:05;;;;;;;29.15;6.72;;;;;;;;;;5103879;27;20052;-61
2024/01/25 03:20:32;;;;;;;35.33;7.07;;;;;;;;;;5103014;27;20560;-61
2024/01/25 03:22:59;;;;;;;25.13;7.32;;;;;;;;;;5103960;27;20040;-62
2024/01/25 03:25:25;;;;;;;30.58;6.35;;;;;;;;;;5103938;27;20048;-61
2024/01/25 03:27:51;;;;;;;27.25;5.45;;;;;;;;;;5103488;27;20199;-61
2024/01/25 03:30:18;;;;;;;29.75;7.50;;;;;;;;;;5103754;27;20063;-60
2024/01/25 03:32:46;;;;;;;44.03;7.15;;;;;;;;;;5103253;27;20122;-61
2024/01/25 03:35:12;;;;;;;33.03;6.78;;;;;;;;;;5103491;27;20105;-58
2024/01/25 03:37:39;;;;;;;35.80;7.22;;;;;;;;;;5104006;28;20052;-59
2024/01/25 03:40:06;;;;;;;24.73;7.40;;;;;;;;;;5103837;27;20135;-60
2024/01/25 03:42:32;;;;;;;25.83;5.22;;;;;;;;;;5103167;28;20133;-59
2024/01/25 03:44:59;;;;;;;23.98;6.28;;;;;;;;;;5103325;27;20059;-60
2024/01/25 03:47:25;;;;;;;36.80;10.38;;;;;;;;;;5103747;27;20048;-60
2024/01/25 03:49:51;;;;;;;29.42;6.43;;;;;;;;;;5103101;28;20688;-61
2024/01/25 03:52:18;;;;;;;32.92;6.57;;;;;;;;;;5103617;28;20583;-61
2024/01/25 03:54:45;;;;;;;25.63;4.88;;;;;;;;;;5103478;27;20555;-61
2024/01/25 03:57:11;;;;;;;31.40;5.35;;;;;;;;;;5103837;28;20139;-60
2024/01/25 03:59:38;;;;;;;34.60;6.97;;;;;;;;;;5103034;28;20113;-61
2024/01/25 04:02:05;;;;;;;30.73;4.90;;;;;;;;;;5102243;27;20137;-61
2024/01/25 04:04:31;;;;;;;33.10;7.28;;;;;;;;;;5103374;27;20052;-60
2024/01/25 04:06:58;;;;;;;25.73;5.20;;;;;;;;;;5103451;27;20675;-60
2024/01/25 04:09:24;;;;;;;28.05;5.65;;;;;;;;;;5103050;28;20075;-60
2024/01/25 04:11:50;;;;;;;30.52;5.50;;;;;;;;;;5102769;27;20078;-60
2024/01/25 04:14:17;;;;;;;32.38;4.82;;;;;;;;;;5103227;28;20536;-61
2024/01/25 04:16:46;;;;;;;32.22;6.10;;;;;;;;;;5102648;27;20523;-61
2024/01/25 04:19:12;;;;;;;30.95;5.65;;;;;;;;;;5103067;27;20094;-59
2024/01/25 04:21:39;;;;;;;27.92;4.88;;;;;;;;;;5103114;27;20052;-60
2024/01/25 04:24:06;;;;;;;29.50;4.95;;;;;;;;;;5103488;27;20470;-58
2024/01/25 04:26:32;;;;;;;27.67;5.47;;;;;;;;;;5102799;27;20118;-62
2024/01/25 04:28:59;;;;;;;28.60;5.00;;;;;;;;;;5102477;27;20159;-61
2024/01/25 04:31:25;;;;;;;20.02;4.18;;;;;;;;;;5103116;27;20143;-61
2024/01/25 04:33:52;;;;;;;30.30;4.57;;;;;;;;;;5102714;27;20083;-61
2024/01/25 04:36:19;;;;;;;28.15;4.78;;;;;;;;;;5103400;27;20139;-61
2024/01/25 04:38:46;;;;;;;35.03;7.15;;;;;;;;;;5104924;27;20056;-60
2024/01/25 04:41:12;;;;;;;24.48;4.90;;;;;;;;;;5106578;27;20048;-60
2024/01/25 04:43:39;;;;;;;32.90;4.75;;;;;;;;;;5106416;27;20113;-61
2024/01/25 04:46:06;;;;;;;28.83;5.80;;;;;;;;;;5106408;27;20048;-61
2024/01/25 04:48:32;;;;;;;32.33;5.25;;;;;;;;;;5106087;27;20044;-61
2024/01/25 04:50:59;;;;;;;30.20;5.63;;;;;;;;;;5106478;27;20586;-61
2024/01/25 04:53:26;;;;;;;31.10;5.45;;;;;;;;;;5106487;27;20044;-61
2024/01/25 04:55:56;;;;;;;25.83;4.95;;;;;;;;;;5105440;27;20079;-59
2024/01/25 04:58:23;;;;;;;24.55;5.70;;;;;;;;;;5104595;27;20052;-60
2024/01/25 05:00:50;;;;;;;29.25;5.07;;;;;;;;;;5106533;27;20052;-61
2024/01/25 05:03:18;;;;;;;27.13;5.65;;;;;;;;;;5104995;27;20082;-61
2024/01/25 05:05:44;;;;;;;22.35;4.15;;;;;;;;;;5106119;27;20056;-61
2024/01/25 05:08:10;;;;;;;28.27;4.80;;;;;;;;;;5105914;27;21094;-61
2024/01/25 05:10:37;;;;;;;34.38;6.38;;;;;;;;;;5106452;27;20056;-61
2024/01/25 05:13:04;;;;;;;26.40;4.70;;;;;;;;;;5105290;27;20063;-60
2024/01/25 05:15:31;;;;;;;37.42;5.75;;;;;;;;;;5105801;27;20628;-59
2024/01/25 05:17:57;;;;;;;33.70;5.55;;;;;;;;;;5104946;27;20051;-61
2024/01/25 05:20:28;;;;;;;34.85;7.00;;;;;;;;;;5104909;28;20499;-61
2024/01/25 05:22:54;;;;;;;22.05;5.43;;;;;;;;;;5105661;27;20059;-61
2024/01/25 05:25:21;;;;;;;33.35;5.22;;;;;;;;;;5105996;27;20052;-61
2024/01/25 05:27:48;;;;;;;27.17;5.07;;;;;;;;;;5105523;27;20052;-62
2024/01/25 05:30:14;;;;;;;30.27;5.50;;;;;;;;;;5106083;27;20063;-61
2024/01/25 05:32:41;;;;;;;30.45;6.25;;;;;;;;;;5106170;27;20058;-61
2024/01/25 05:35:07;;;;;;;24.92;5.10;;;;;;;;;;5105588;27;20122;-61
2024/01/25 05:37:35;;;;;;;29.63;5.60;;;;;;;;;;5105306;27;20055;-61
2024/01/25 05:40:01;;;;;;;29.05;6.07;;;;;;;;;;5104681;27;20139;-61
2024/01/25 05:42:28;;;;;;;21.67;5.03;;;;;;;;;;5105410;27;20047;-61
2024/01/25 05:44:54;;;;;;;35.65;5.75;;;;;;;;;;5105018;27;20052;-61
2024/01/25 05:47:21;;;;;;;45.80;6.60;;;;;;;;;;5105649;27;20579;-61
2024/01/25 05:49:47;;;;;;;36.30;5.45;;;;;;;;;;5104495;27;20602;-60
2024/01/25 05:52:14;;;;;;;29.38;6.00;;;;;;;;;;5105550;27;20062;-59
2024/01/25 05:54:40;;;;;;;29.80;6.00;;;;;;;;;;5104789;27;20048;-60
2024/01/25 05:57:07;;;;;;;30.67;5.35;;;;;;;;;;5105075;27;20498;-60
2024/01/25 05:59:33;;;;;;;28.85;5.20;;;;;;;;;;5104674;27;20067;-62
2024/01/25 06:02:00;;;;;;;33.53;6.05;;;;;;;;;;5105061;27;20149;-60
2024/01/25 06:04:26;;;;;;;33.03;7.22;;;;;;;;;;5105297;27;20055;-60
2024/01/25 06:06:53;;;;;;;34.97;5.85;;;;;;;;;;5103951;28;20052;-61
2024/01/25 06:09:20;;;;;;;25.77;5.88;;;;;;;;;;5104862;27;20052;-60
2024/01/25 06:11:46;;;;;;;36.28;6.43;;;;;;;;;;5105069;27;20051;-61
2024/01/25 06:14:13;;;;;;;33.33;5.90;;;;;;;;;;5104790;27;20154;-57
2024/01/25 06:16:39;;;;;;;34.05;6.32;;;;;;;;;;5105198;27;20060;-60
2024/01/25 06:19:06;;;;;;;34.25;6.22;;;;;;;;;;5100352;27;20056;-61
2024/01/25 06:21:35;;;;;;;35.45;6.93;;;;;;;;;;5104801;27;20054;-61
2024/01/25 06:24:02;;;;;;;35.75;6.13;;;;;;;;;;5104273;27;20056;-61
2024/01/25 06:26:28;;;;;;;23.30;5.25;;;;;;;;;;5092015;27;20099;-60
2024/01/25 06:28:54;;;;;;;29.70;6.43;;;;;;;;;;5103703;28;20051;-61
2024/01/25 06:31:21;;;;;;;24.85;6.78;;;;;;;;;;5098271;27;20048;-61
2024/01/25 06:33:50;;;;;;;24.48;5.43;;;;;;;;;;5083984;28;20057;-60
2024/01/25 06:36:18;;;;;;;30.25;5.13;;;;;;;;;;5083880;28;20530;-61
2024/01/25 06:38:44;;;;;;;28.65;6.10;;;;;;;;;;5083642;28;20060;-61
2024/01/25 06:41:12;;;;;;;34.60;6.35;;;;;;;;;;5083110;28;20048;-61
2024/01/25 06:43:40;;;;;;;40.92;10.52;;;;;;;;;;5094572;28;20063;-61
2024/01/25 06:46:07;;;;;;;31.42;7.30;;;;;;;;;;5104661;27;20135;-60
2024/01/25 06:48:33;;;;;;;28.67;6.13;;;;;;;;;;5104792;27;20079;-61
2024/01/25 06:51:03;;;;;;;35.22;6.25;;;;;;;;;;5104460;27;20084;-60
2024/01/25 06:53:29;;;;;;;33.80;7.55;;;;;;;;;;5090410;27;20159;-61
2024/01/25 06:55:56;;;;;;;30.25;5.90;;;;;;;;;;5088347;28;20177;-59
2024/01/25 06:58:22;;;;;;;33.83;6.97;;;;;;;;;;5102303;27;20110;-61
2024/01/25 07:00:49;;;;;;;21.35;6.43;;;;;;;;;;5092678;28;20110;-60
2024/01/25 07:03:16;;;;;;;30.88;6.30;;;;;;;;;;5084089;28;20053;-61
2024/01/25 07:05:43;;;;;;;27.05;6.05;;;;;;;;;;5083443;28;20455;-60
2024/01/25 07:08:13;;;;;;;25.75;5.35;;;;;;;;;;5099998;27;20051;-61
2024/01/25 07:10:39;;;;;;;26.17;6.72;;;;;;;;;;5104395;27;20163;-60
2024/01/25 07:13:06;;;;;;;31.95;6.50;;;;;;;;;;5092113;27;20135;-60
2024/01/25 07:15:33;;;;;;;39.58;8.63;;;;;;;;;;5083724;28;20517;-60
2024/01/25 07:17:59;;;;;;;39.13;7.50;;;;;;;;;;5088596;28;20054;-60
2024/01/25 07:20:26;;;;;;;27.42;7.65;;;;;;;;;;5084186;28;20052;-61
2024/01/25 07:22:53;;;;;;;30.08;6.82;;;;;;;;;;5084744;28;20053;-60
2024/01/25 07:25:19;;;;;;;32.58;7.40;;;;;;;;;;5094119;28;20200;-61
2024/01/25 07:27:46;;;;;;;39.40;8.30;;;;;;;;;;5084441;27;20052;-61
2024/01/25 07:30:13;;;;;;;32.10;7.05;;;;;;;;;;5089738;28;20052;-60
2024/01/25 07:32:42;;;;;;;32.58;6.85;;;;;;;;;;5103860;27;20052;-61
2024/01/25 07:35:12;;;;;;;40.38;6.70;;;;;;;;;;5084747;27;20143;-61
2024/01/25 07:37:40;;;;;;;36.00;8.38;;;;;;;;;;5095454;28;20576;-60
2024/01/25 07:40:08;;;;;;;42.35;6.97;;;;;;;;;;5103908;27;20052;-59
2024/01/25 07:42:34;;;;;;;41.67;7.88;;;;;;;;;;5104142;27;20058;-60
2024/01/25 07:45:01;;;;;;;33.33;7.85;;;;;;;;;;5083200;27;20055;-61
2024/01/25 07:47:27;;;;;;;31.52;7.80;;;;;;;;;;5083437;28;20494;-61
2024/01/25 07:49:53;;;;;;;31.52;7.82;;;;;;;;;;5082994;28;20431;-59
2024/01/25 07:52:20;;;;;;;37.45;7.75;;;;;;;;;;5097210;28;20102;-61
2024/01/25 07:54:49;;;;;;;31.17;6.35;;;;;;;;;;5084596;27;20123;-60
2024/01/25 07:57:15;;;;;;;31.13;6.82;;;;;;;;;;5083456;28;20056;-61
2024/01/25 07:59:42;;;;;;;25.02;6.82;;;;;;;;;;5084790;28;20060;-61
2024/01/25 08:02:08;;;;;;;33.53;8.05;;;;;;;;;;5091646;28;20055;-61
2024/01/25 08:04:35;;;;;;;30.10;6.75;;;;;;;;;;5104363;27;20060;-61
2024/01/25 08:07:02;;;;;;;29.77;7.00;;;;;;;;;;5084643;27;20132;-62
2024/01/25 08:09:28;;;;;;;28.98;7.50;;;;;;;;;;5099747;27;20056;-62
2024/01/25 08:11:55;;;;;;;40.13;8.35;;;;;;;;;;5102776;27;20084;-62
2024/01/25 08:14:21;;;;;;;29.77;7.05;;;;;;;;;;5109202;27;20048;-59
2024/01/25 08:16:48;;;;;;;34.83;7.10;;;;;;;;;;5101016;27;20063;-61
2024/01/25 08:19:14;;;;;;;29.30;6.28;;;;;;;;;;5090076;27;20052;-61
2024/01/25 08:21:42;;;;;;;37.28;8.63;;;;;;;;;;5104479;27;20139;-61
2024/01/25 08:24:08;;;;;;;34.85;7.97;;;;;;;;;;5091574;28;20060;-61
2024/01/25 08:26:35;;;;;;;36.00;8.55;;;;;;;;;;5107752;27;20516;-61
2024/01/25 08:29:01;;;;;;;34.50;9.20;;;;;;;;;;5109531;27;20063;-59
2024/01/25 08:31:28;;;;;;;32.78;9.95;;;;;;;;;;5106359;27;20052;-58
2024/01/25 08:33:54;;;;;;;38.15;11.75;;;;;;;;;;5089909;27;20561;-59
2024/01/25 08:36:22;;;;;;;41.67;12.68;;;;;;;;;;5108508;27;20601;-60
2024/01/25 08:38:49;;;;;;;47.13;12.70;;;;;;;;;;5108381;27;20135;-61
2024/01/25 08:41:16;;;;;;;46.10;14.70;;;;;;;;;;5107715;27;20063;-61
2024/01/25 08:43:43;;;;;;;43.42;15.00;;;;;;;;;;5108618;27;20052;-61
2024/01/25 08:46:09;;;;;;;46.08;14.52;;;;;;;;;;5108382;27;20110;-61
2024/01/25 08:48:36;;;;;;;40.60;16.00;;;;;;;;;;5107697;27;20410;-61
2024/01/25 08:51:02;;;;;;;42.42;15.45;;;;;;;;;;5108919;27;20059;-60
2024/01/25 08:53:29;;;;;;;41.30;12.80;;;;;;;;;;5107998;28;20105;-60
2024/01/25 08:55:56;;;;;;;41.80;12.57;;;;;;;;;;5107115;27;20510;-61
2024/01/25 08:58:22;;;;;;;42.88;12.57;;;;;;;;;;5104805;28;20048;-60
2024/01/25 09:00:49;;;;;;;33.13;11.25;;;;;;;;;;5108846;27;20510;-61
2024/01/25 09:03:15;;;;;;;31.30;10.70;;;;;;;;;;5107283;28;20084;-61
2024/01/25 09:05:46;;;;;;;28.20;10.02;;;;;;;;;;5107930;28;20094;-61
2024/01/25 09:08:13;;;;;;;36.15;9.88;;;;;;;;;;5105494;27;20058;-61
2024/01/25 09:10:40;;;;;;;37.03;10.68;;;;;;;;;;5089392;28;20079;-59
2024/01/25 09:13:07;;;;;;;36.53;9.75;;;;;;;;;;5102612;28;20101;-60
2024/01/25 09:15:33;;;;;;;34.80;9.25;;;;;;;;;;5106850;27;20121;-61
2024/01/25 09:17:59;;;;;;;25.00;8.52;;;;;;;;;;5092324;28;20070;-61
2024/01/25 09:20:26;;;;;;;31.40;8.27;;;;;;;;;;5108859;27;20505;-59
2024/01/25 09:22:55;;;;;;;34.45;8.88;;;;;;;;;;5102849;27;20048;-60
2024/01/25 09:25:22;;;;;;;29.15;7.28;;;;;;;;;;5104669;27;20139;-59
2024/01/25 09:27:48;;;;;;;30.42;8.48;;;;;;;;;;5103556;27;20063;-60
2024/01/25 09:30:16;;;;;;;38.95;8.55;;;;;;;;;;5086969;28;20569;-61
2024/01/25 09:32:42;;;;;;;36.25;8.15;;;;;;;;;;5102480;27;20052;-60
2024/01/25 09:35:09;;;;;;;37.63;8.00;;;;;;;;;;5112930;27;20131;-61
2024/01/25 09:37:36;;;;;;;30.67;8.48;;;;;;;;;;5094263;28;20052;-60
2024/01/25 09:40:03;;;;;;;30.92;7.85;;;;;;;;;;5091707;27;20126;-61
2024/01/25 09:42:31;;;;;;;30.77;7.93;;;;;;;;;;5105251;27;20052;-60
2024/01/25 09:44:57;;;;;;;36.03;7.25;;;;;;;;;;5104498;28;20514;-59
2024/01/25 09:47:24;;;;;;;35.75;7.30;;;;;;;;;;5104507;27;20486;-60
2024/01/25 09:49:51;;;;;;;25.45;6.22;;;;;;;;;;5099634;27;20052;-60
2024/01/25 09:52:19;;;;;;;39.83;7.15;;;;;;;;;;5103468;27;20067;-61
2024/01/25 09:54:46;;;;;;;33.95;6.20;;;;;;;;;;5104287;27;20131;-60
2024/01/25 09:57:18;;;;;;;32.33;7.20;;;;;;;;;;5104470;27;20048;-60
2024/01/25 09:59:45;;;;;;;36.40;6.78;;;;;;;;;;5081704;27;20057;-59
2024/01/25 10:02:11;;;;;;;32.83;6.28;;;;;;;;;;5096913;27;20517;-60
2024/01/25 10:04:38;;;;;;;29.73;6.40;;;;;;;;;;5093897;27;20075;-60
2024/01/25 10:07:05;;;;;;;28.83;6.10;;;;;;;;;;5103856;27;20059;-60
2024/01/25 10:09:38;;;;;;;28.58;6.93;;;;;;;;;;5103169;27;20058;-61
2024/01/25 10:12:05;;;;;;;24.60;4.88;;;;;;;;;;5103917;27;20048;-61
2024/01/25 10:14:35;;;;;;;33.80;6.68;;;;;;;;;;5103449;27;20056;-59
2024/01/25 10:17:01;;;;;;;24.52;5.40;;;;;;;;;;5097108;27;20059;-59
2024/01/25 10:19:28;;;;;;;25.60;5.93;;;;;;;;;;5090074;27;20143;-61
2024/01/25 10:21:55;;;;;;;27.23;6.43;;;;;;;;;;5101090;27;20137;-61
2024/01/25 10:24:22;;;;;;;30.92;6.28;;;;;;;;;;5093828;27;20048;-60
2024/01/25 10:26:49;;;;;;;23.73;6.93;;;;;;;;;;5097767;27;20048;-61
2024/01/25 10:29:15;;;;;;;31.85;8.30;;;;;;;;;;5091142;28;20052;-61
2024/01/25 10:31:42;;;;;;;30.27;6.95;;;;;;;;;;5100180;27;20739;-61
2024/01/25 10:34:11;;;;;;;32.75;6.47;;;;;;;;;;5098068;27;20061;-61
2024/01/25 10:36:38;;;;;;;23.42;5.60;;;;;;;;;;5097455;28;20056;-61
2024/01/25 10:39:07;;;;;;;31.90;6.10;;;;;;;;;;5103003;27;20052;-61
2024/01/25 10:41:34;;;;;;;25.25;5.82;;;;;;;;;;5104308;27;20062;-59
2024/01/25 10:44:01;;;;;;;29.80;6.60;;;;;;;;;;5103904;27;20475;-61
2024/01/25 10:46:32;;;;;;;28.52;6.35;;;;;;;;;;5094223;27;20059;-65
2024/01/25 10:49:01;;;;;;;39.28;6.15;;;;;;;;;;5098863;27;20058;-65
2024/01/25 10:51:28;;;;;;;36.20;6.70;;;;;;;;;;5097607;27;20395;-61
2024/01/25 10:53:55;;;;;;;32.85;6.50;;;;;;;;;;5103259;27;20068;-61
2024/01/25 10:56:22;;;;;;;28.65;5.95;;;;;;;;;;5103867;27;20056;-60
2024/01/25 10:58:48;;;;;;;36.30;6.47;;;;;;;;;;5097281;27;20052;-60
2024/01/25 11:01:16;;;;;;;26.10;6.95;;;;;;;;;;5103711;27;20185;-59
2024/01/25 11:03:48;;;;;;;29.10;5.57;;;;;;;;;;5103745;27;20048;-60
2024/01/25 11:06:15;;;;;;;28.35;5.60;;;;;;;;;;5103715;27;20131;-61
2024/01/25 11:08:42;;;;;;;29.42;5.18;;;;;;;;;;5103604;27;20494;-61
2024/01/25 11:11:13;;;;;;;18.75;5.18;;;;;;;;;;5103365;27;20102;-59
2024/01/25 11:13:41;;;;;;;35.85;7.10;;;;;;;;;;5103835;27;20060;-59
2024/01/25 11:16:16;;;;;;;24.83;5.72;;;;;;;;;;5088752;27;20056;-61
2024/01/25 11:18:50;;;;;;;27.40;6.40;;;;;;;;;;5096103;28;20048;-60
2024/01/25 11:21:26;;;;;;;25.20;5.32;;;;;;;;;;5103565;27;20058;-60
2024/01/25 11:24:02;;;;;;;21.63;4.97;;;;;;;;;;5103189;27;20514;-61
2024/01/25 11:26:29;;;;;;;25.33;5.50;;;;;;;;;;5103950;27;20084;-61
2024/01/25 11:28:56;;;;;;;21.15;4.97;;;;;;;;;;5102363;27;20422;-61
2024/01/25 11:31:23;;;;;;;26.77;7.70;;;;;;;;;;5102186;28;20537;-61
2024/01/25 11:33:51;;;;;;;38.45;6.90;;;;;;;;;;5089760;28;20059;-61
2024/01/25 11:36:20;;;;;;;34.88;6.35;;;;;;;;;;5103093;27;20059;-61
2024/01/25 11:38:46;;;;;;;28.67;6.30;;;;;;;;;;5103369;27;20076;-62
2024/01/25 11:41:13;;;;;;;24.55;4.93;;;;;;;;;;5103100;27;20056;-62
2024/01/25 11:43:40;;;;;;;29.55;6.50;;;;;;;;;;5102784;27;20075;-58
2024/01/25 11:46:06;;;;;;;35.65;7.35;;;;;;;;;;5102801;27;20135;-59
2024/01/25 11:48:33;;;;;;;32.75;6.32;;;;;;;;;;5099881;28;20517;-61
2024/01/25 11:51:00;;;;;;;29.92;5.45;;;;;;;;;;5099356;28;20048;-62
2024/01/25 11:53:26;;;;;;;25.10;6.80;;;;;;;;;;5102447;27;20543;-62
2024/01/25 11:55:54;;;;;;;36.05;6.68;;;;;;;;;;5102595;27;20578;-62
2024/01/25 11:58:21;;;;;;;33.15;6.30;;;;;;;;;;5101361;28;20582;-61
2024/01/25 12:00:48;;;;;;;32.78;6.70;;;;;;;;;;5102189;27;20056;-61
2024/01/25 12:03:15;;;;;;;31.20;7.57;;;;;;;;;;5103123;27;20060;-61
2024/01/25 12:05:42;;;;;;;36.92;8.25;;;;;;;;;;5100335;27;20088;-61
2024/01/25 12:08:09;;;;;;;28.02;5.57;;;;;;;;;;5084050;28;20053;-60
2024/01/25 12:10:36;;;;;;;27.92;6.07;;;;;;;;;;5102933;27;20063;-60
2024/01/25 12:13:03;;;;;;;27.10;5.78;;;;;;;;;;5101953;27;20052;-62
2024/01/25 12:15:32;;;;;;;29.00;6.40;;;;;;;;;;5102393;27;20056;-60
2024/01/25 12:17:58;;;;;;;33.72;6.63;;;;;;;;;;5101607;27;20052;-61
2024/01/25 12:20:26;;;;;;;31.13;6.75;;;;;;;;;;5103051;27;20060;-61
2024/01/25 12:22:52;;;;;;;29.55;6.22;;;;;;;;;;5098353;27;20053;-61
2024/01/25 12:25:19;;;;;;;31.17;7.35;;;;;;;;;;5095119;28;20051;-61
2024/01/25 12:27:49;;;;;;;37.65;6.53;;;;;;;;;;5101789;28;20062;-61
2024/01/25 12:30:16;;;;;;;34.17;7.05;;;;;;;;;;5102195;27;20052;-60
2024/01/25 12:32:42;;;;;;;32.28;6.80;;;;;;;;;;5102286;27;20079;-60
2024/01/25 12:35:09;;;;;;;27.50;6.47;;;;;;;;;;5098281;27;20050;-62
2024/01/25 12:37:35;;;;;;;22.40;5.88;;;;;;;;;;5090748;27;20134;-58
2024/01/25 12:40:02;;;;;;;33.58;6.80;;;;;;;;;;5092483;27;20645;-59
2024/01/25 12:42:29;;;;;;;28.52;5.65;;;;;;;;;;5094118;27;20477;-60
2024/01/25 12:44:56;;;;;;;31.02;6.25;;;;;;;;;;5093431;27;20152;-58
2024/01/25 12:47:23;;;;;;;24.13;5.47;;;;;;;;;;5094838;27;20550;-61
2024/01/25 12:49:50;;;;;;;40.67;6.15;;;;;;;;;;5093864;27;20048;-61
2024/01/25 12:52:17;;;;;;;26.98;6.10;;;;;;;;;;5094173;27;20056;-59
2024/01/25 12:54:43;;;;;;;27.70;5.50;;;;;;;;;;5097753;27;20058;-59
2024/01/25 12:57:10;;;;;;;28.52;6.03;;;;;;;;;;5099336;27;20055;-61
2024/01/25 12:59:37;;;;;;;29.92;6.10;;;;;;;;;;5098756;27;20111;-60
2024/01/25 13:02:06;;;;;;;34.28;7.13;;;;;;;;;;5096653;27;20059;-58
2024/01/25 13:04:33;;;;;;;28.50;6.28;;;;;;;;;;5099924;27;20676;-60
2024/01/25 13:06:59;;;;;;;29.13;6.78;;;;;;;;;;5100722;27;20075;-60
2024/01/25 13:09:26;;;;;;;29.98;6.82;;;;;;;;;;5095016;28;20170;-60
2024/01/25 13:11:52;;;;;;;30.80;6.10;;;;;;;;;;5095079;27;20052;-59
2024/01/25 13:14:18;;;;;;;25.52;5.80;;;;;;;;;;5101855;27;20591;-59
2024/01/25 13:16:45;;;;;;;31.20;7.60;;;;;;;;;;5097957;27;20150;-61
2024/01/25 13:19:11;;;;;;;26.45;6.28;;;;;;;;;;5099492;28;20139;-60
2024/01/25 13:21:39;;;;;;;27.02;7.72;;;;;;;;;;5104650;28;20056;-60
2024/01/25 13:24:06;;;;;;;23.33;5.57;;;;;;;;;;5105228;27;20512;-60
2024/01/25 13:26:34;;;;;;;30.73;6.97;;;;;;;;;;5106117;27;20569;-60
2024/01/25 13:29:00;;;;;;;31.83;6.90;;;;;;;;;;5102009;27;22078;-61
2024/01/25 13:31:26;;;;;;;34.33;7.68;;;;;;;;;;5096402;27;20076;-59
2024/01/25 13:33:53;;;;;;;31.88;7.28;;;;;;;;;;5102292;28;20110;-61
2024/01/25 13:36:20;;;;;;;27.77;7.53;;;;;;;;;;5105839;27;20044;-60
2024/01/25 13:38:47;;;;;;;32.88;6.85;;;;;;;;;;5094684;27;20169;-60
2024/01/25 13:41:13;;;;;;;27.23;6.68;;;;;;;;;;5101022;27;20525;-60
2024/01/25 13:43:40;;;;;;;35.08;8.48;;;;;;;;;;5104835;27;20113;-60
2024/01/25 13:46:06;;;;;;;27.08;7.50;;;;;;;;;;5104686;27;20047;-61
2024/01/25 13:48:33;;;;;;;33.05;9.30;;;;;;;;;;5100465;27;20060;-61
2024/01/25 13:50:59;;;;;;;39.45;9.25;;;;;;;;;;5102897;27;20110;-60
2024/01/25 13:53:26;;;;;;;26.40;7.40;;;;;;;;;;5093632;27;20056;-62
2024/01/25 13:55:52;;;;;;;29.27;7.55;;;;;;;;;;5102687;27;20117;-60
2024/01/25 13:58:19;;;;;;;30.63;8.02;;;;;;;;;;5100181;27;20063;-60
2024/01/25 14:00:45;;;;;;;33.40;8.10;;;;;;;;;;5093958;28;20056;-60
2024/01/25 14:03:11;;;;;;;37.63;9.52;;;;;;;;;;5096399;27;20045;-60
2024/01/25 14:05:38;;;;;;;33.33;8.30;;;;;;;;;;5096251;28;20569;-61
2024/01/25 14:08:06;;;;;;;25.70;8.85;;;;;;;;;;5092369;27;20122;-60
2024/01/25 14:10:34;;;;;;;35.40;10.95;;;;;;;;;;5095258;27;20081;-61
2024/01/25 14:13:00;;;;;;;36.00;8.50;;;;;;;;;;5095084;28;20056;-60
2024/01/25 14:15:27;;;;;;;26.63;8.98;;;;;;;;;;5096381;27;20048;-61
2024/01/25 14:17:54;;;;;;;35.63;9.27;;;;;;;;;;5095147;27;22209;-61
2024/01/25 14:20:21;;;;;;;28.88;8.48;;;;;;;;;;5098018;27;20055;-61
2024/01/25 14:22:48;;;;;;;30.73;8.27;;;;;;;;;;5100772;27;20056;-61
2024/01/25 14:25:15;;;;;;;33.28;10.95;;;;;;;;;;5104212;27;20059;-61